Time;durP1;ratioP1;P1;durP2;ratioP2;P2;SDS_P1;SDS_P2;PMS_P1;PMS_P2;Temp;Humidity;BMP_temperature;BMP_pressure;BME280_temperature;BME280_humidity;BME280_pressure;Samples;Min_cycle;Max_cycle;Signal;HPM_P1;HPM_P2
2022/09/16 00:00:59;;;;;;;5.10;2.00;;;10.20;99.90;;;;;;4956428;28;20392;-86
2022/09/16 00:03:27;;;;;;;8.00;2.72;;;10.10;99.90;;;;;;4957227;28;20407;-85
2022/09/16 00:05:54;;;;;;;6.73;2.17;;;10.20;99.90;;;;;;4955953;29;20420;-86
2022/09/16 00:08:22;;;;;;;6.75;2.08;;;10.20;99.90;;;;;;4951699;28;20396;-87
2022/09/16 00:10:50;;;;;;;7.50;2.20;;;10.20;99.90;;;;;;4955854;29;20392;-84
2022/09/16 00:13:18;;;;;;;5.75;2.40;;;10.10;99.90;;;;;;4972080;28;20474;-86
2022/09/16 00:15:49;;;;;;;7.47;2.80;;;10.20;99.90;;;;;;4971734;28;20408;-86
2022/09/16 00:18:19;;;;;;;6.72;2.60;;;10.10;99.90;;;;;;4971807;28;20432;-87
2022/09/16 00:20:49;;;;;;;7.00;2.22;;;10.10;99.90;;;;;;4955659;29;20422;-86
2022/09/16 00:23:18;;;;;;;5.45;2.28;;;10.00;99.90;;;;;;4971826;28;20402;-85
2022/09/16 00:25:53;;;;;;;6.28;2.72;;;10.10;99.90;;;;;;4971718;28;20521;-85
2022/09/16 00:28:22;;;;;;;5.10;2.15;;;10.10;99.90;;;;;;4955759;29;20392;-86
2022/09/16 00:30:50;;;;;;;8.35;1.90;;;10.00;99.90;;;;;;4955574;29;20806;-86
2022/09/16 00:33:19;;;;;;;5.35;1.88;;;10.00;99.90;;;;;;4956641;28;20451;-87
2022/09/16 00:35:47;;;;;;;4.47;1.77;;;10.10;99.90;;;;;;4955480;29;20400;-87
2022/09/16 00:38:15;;;;;;;5.45;1.95;;;10.00;99.90;;;;;;4959460;28;20422;-86
2022/09/16 00:40:48;;;;;;;5.30;1.60;;;10.10;99.90;;;;;;4955370;29;20388;-86
2022/09/16 00:43:19;;;;;;;4.57;1.80;;;10.10;99.90;;;;;;4955707;29;20400;-86
2022/09/16 00:46:01;;;;;;;5.28;2.13;;;10.10;99.90;;;;;;4955248;29;20475;-87
2022/09/16 00:48:31;;;;;;;5.82;1.88;;;10.00;99.90;;;;;;4956390;28;20395;-86
2022/09/16 00:51:04;;;;;;;6.25;2.10;;;10.00;99.90;;;;;;4955283;29;20424;-86
2022/09/16 00:53:39;;;;;;;7.63;2.20;;;10.00;99.90;;;;;;4956307;29;20392;-86
2022/09/16 00:56:11;;;;;;;8.60;1.92;;;10.10;99.90;;;;;;4954493;29;20428;-86
2022/09/16 00:59:04;;;;;;;8.32;2.58;;;10.00;99.90;;;;;;4954980;28;20408;-85
2022/09/16 01:01:32;;;;;;;7.93;2.45;;;10.10;99.90;;;;;;4954895;29;20400;-86
2022/09/16 01:04:05;;;;;;;7.72;2.00;;;10.00;99.90;;;;;;4956129;29;20895;-87
2022/09/16 01:06:37;;;;;;;5.72;2.08;;;10.00;99.90;;;;;;4955517;29;20396;-86
2022/09/16 01:09:06;;;;;;;7.13;1.90;;;10.00;99.90;;;;;;4956085;28;20488;-86
2022/09/16 01:11:33;;;;;;;4.60;2.00;;;10.00;99.90;;;;;;4954796;29;20396;-86
2022/09/16 01:17:19;;;;;;;6.90;2.03;;;9.90;99.90;;;;;;4954591;29;20408;-86
2022/09/16 01:20:24;;;;;;;6.07;2.37;;;10.00;99.90;;;;;;4954699;29;20456;-89
2022/09/16 01:23:07;;;;;;;6.27;2.40;;;10.00;99.90;;;;;;4954713;29;20871;-88
2022/09/16 01:25:40;;;;;;;4.95;1.90;;;10.00;99.90;;;;;;4938612;29;20396;-87
2022/09/16 01:28:29;;;;;;;6.47;1.90;;;10.00;99.90;;;;;;4954417;29;20439;-87
2022/09/16 01:31:08;;;;;;;5.45;2.00;;;9.90;99.90;;;;;;4955635;29;20451;-87
2022/09/16 01:33:56;;;;;;;5.15;1.90;;;9.80;99.90;;;;;;4954637;28;20396;-87
2022/09/16 01:36:29;;;;;;;6.95;2.25;;;9.90;99.90;;;;;;4954623;29;20902;-87
2022/09/16 01:39:27;;;;;;;4.43;1.83;;;9.90;99.90;;;;;;4954253;29;20431;-87
2022/09/16 01:42:19;;;;;;;8.02;2.20;;;10.00;99.90;;;;;;4955547;28;20447;-87
2022/09/16 01:44:56;;;;;;;4.88;1.90;;;10.00;99.90;;;;;;4955148;28;20433;-88
2022/09/16 01:47:29;;;;;;;5.60;1.77;;;10.00;99.90;;;;;;4955416;28;20408;-87
2022/09/16 01:50:02;;;;;;;6.18;2.03;;;9.80;99.90;;;;;;4955392;28;20424;-87
2022/09/16 01:52:49;;;;;;;5.43;2.20;;;9.90;99.90;;;;;;4938390;29;20487;-89
2022/09/16 01:55:58;;;;;;;4.18;1.80;;;9.90;99.90;;;;;;4954378;29;20409;-88
2022/09/16 01:58:34;;;;;;;8.10;2.47;;;9.90;99.90;;;;;;4917963;29;20458;-87
2022/09/16 02:01:09;;;;;;;7.70;2.78;;;10.00;99.90;;;;;;4933754;29;20410;-86
2022/09/16 02:03:39;;;;;;;7.00;2.08;;;10.00;99.90;;;;;;4945915;29;20397;-87
2022/09/16 02:06:18;;;;;;;7.18;2.47;;;9.90;99.90;;;;;;4954181;28;20468;-87
2022/09/16 02:08:58;;;;;;;7.30;2.63;;;9.90;99.90;;;;;;4953743;29;20407;-87
2022/09/16 02:11:25;;;;;;;6.80;2.08;;;9.80;99.90;;;;;;4954985;28;20451;-86
2022/09/16 02:14:11;;;;;;;4.97;2.10;;;9.90;99.90;;;;;;4953613;29;20427;-87
2022/09/16 02:16:59;;;;;;;9.10;2.13;;;9.90;99.90;;;;;;4953367;29;20479;-88
2022/09/16 02:19:34;;;;;;;9.32;2.28;;;9.90;99.90;;;;;;4953452;29;20415;-86
2022/09/16 02:22:08;;;;;;;4.93;2.10;;;9.90;99.90;;;;;;4954758;29;20396;-86
2022/09/16 02:24:38;;;;;;;7.90;1.97;;;9.80;99.90;;;;;;4953375;29;20443;-87
2022/09/16 02:27:12;;;;;;;6.15;2.10;;;9.80;99.90;;;;;;4953394;29;20404;-87
2022/09/16 02:29:50;;;;;;;6.00;2.17;;;9.70;99.90;;;;;;4952953;29;20438;-87
2022/09/16 02:32:21;;;;;;;5.57;2.55;;;9.70;99.90;;;;;;4953187;29;20468;-86
2022/09/16 02:34:50;;;;;;;6.87;2.07;;;9.70;99.90;;;;;;4953155;29;20424;-87
2022/09/16 02:37:45;;;;;;;7.68;2.40;;;9.80;99.90;;;;;;4953125;29;20396;-87
2022/09/16 02:40:21;;;;;;;7.70;2.25;;;9.80;99.90;;;;;;4938673;29;20420;-87
2022/09/16 02:42:49;;;;;;;6.50;1.98;;;9.80;99.90;;;;;;4953091;29;20428;-87
2022/09/16 02:45:17;;;;;;;6.43;2.35;;;9.80;99.90;;;;;;4954233;29;20496;-87
2022/09/16 02:47:47;;;;;;;4.28;1.95;;;9.70;99.90;;;;;;4953196;29;20488;-87
2022/09/16 02:50:42;;;;;;;5.75;2.10;;;9.80;99.90;;;;;;4937178;29;20396;-88
2022/09/16 02:53:18;;;;;;;6.60;2.13;;;9.80;99.90;;;;;;4952987;29;20888;-87
2022/09/16 02:56:01;;;;;;;6.78;2.05;;;9.80;99.90;;;;;;4952930;29;20483;-86
2022/09/16 02:58:29;;;;;;;4.85;2.03;;;9.80;99.90;;;;;;4954404;28;20399;-86
2022/09/16 03:00:57;;;;;;;6.40;1.95;;;9.80;99.90;;;;;;4953971;28;20451;-86
2022/09/16 03:03:25;;;;;;;8.45;2.10;;;9.80;99.90;;;;;;4957441;28;20809;-87
2022/09/16 03:06:08;;;;;;;4.93;1.90;;;9.80;99.90;;;;;;4953073;28;20396;-85
2022/09/16 03:08:37;;;;;;;6.25;2.00;;;9.80;99.90;;;;;;4952753;29;20392;-87
2022/09/16 03:11:17;;;;;;;7.13;2.10;;;9.70;99.90;;;;;;4968829;28;20429;-86
2022/09/16 03:14:03;;;;;;;5.85;1.85;;;9.70;99.90;;;;;;4968948;28;20418;-86
2022/09/16 03:16:49;;;;;;;5.70;1.95;;;9.70;99.90;;;;;;4953861;29;20479;-87
2022/09/16 03:19:42;;;;;;;4.90;2.00;;;9.60;99.90;;;;;;4952570;29;20408;-86
2022/09/16 03:22:44;;;;;;;7.00;2.17;;;9.70;99.90;;;;;;4952858;29;20396;-87
2022/09/16 03:25:35;;;;;;;5.60;1.80;;;9.70;99.90;;;;;;4953597;29;20895;-87
2022/09/16 03:28:12;;;;;;;5.10;1.80;;;9.70;99.90;;;;;;4953075;29;20414;-87
2022/09/16 03:31:14;;;;;;;5.45;1.65;;;9.70;99.90;;;;;;4953843;28;20396;-86
2022/09/16 03:34:15;;;;;;;3.67;1.50;;;9.70;99.90;;;;;;4949743;28;20432;-88
2022/09/16 03:36:50;;;;;;;5.90;1.80;;;9.60;99.90;;;;;;4943840;28;20460;-87
2022/09/16 03:39:18;;;;;;;6.43;1.85;;;9.70;99.90;;;;;;4952518;29;20499;-87
2022/09/16 03:41:46;;;;;;;7.82;1.80;;;9.60;99.90;;;;;;4958300;28;20493;-87
2022/09/16 03:44:13;;;;;;;3.45;1.60;;;9.60;99.90;;;;;;4955773;28;20442;-86
2022/09/16 03:46:41;;;;;;;5.20;1.40;;;9.70;99.90;;;;;;4973200;28;20390;-86
2022/09/16 03:49:10;;;;;;;6.20;1.90;;;9.70;99.90;;;;;;4971676;28;20490;-88
2022/09/16 03:51:37;;;;;;;6.97;1.80;;;9.70;99.90;;;;;;4971733;28;20390;-87
2022/09/16 03:54:05;;;;;;;5.22;1.90;;;9.60;99.90;;;;;;4972820;28;20430;-88
2022/09/16 03:56:33;;;;;;;6.83;2.10;;;9.60;99.90;;;;;;4960034;28;20434;-87
2022/09/16 03:59:00;;;;;;;7.35;2.05;;;9.60;99.90;;;;;;4965549;28;20406;-86
2022/09/16 04:01:28;;;;;;;8.23;2.10;;;9.60;99.90;;;;;;4966048;28;20404;-85
2022/09/16 04:03:55;;;;;;;6.60;1.90;;;9.60;99.90;;;;;;4961961;28;20400;-86
2022/09/16 04:06:23;;;;;;;6.70;1.65;;;9.60;99.90;;;;;;4955436;28;20405;-86
2022/09/16 04:08:52;;;;;;;5.63;1.98;;;9.60;99.90;;;;;;4971470;28;20398;-87
2022/09/16 04:11:19;;;;;;;6.47;1.85;;;9.50;99.90;;;;;;4971530;28;20405;-87
2022/09/16 04:13:47;;;;;;;3.88;1.80;;;9.50;99.90;;;;;;4970417;28;20402;-89
2022/09/16 04:16:22;;;;;;;4.90;2.07;;;9.50;99.90;;;;;;4971985;28;20391;-89
2022/09/16 04:18:50;;;;;;;8.00;1.80;;;9.60;99.90;;;;;;4971854;28;20513;-88
2022/09/16 04:21:18;;;;;;;6.05;1.70;;;9.60;99.90;;;;;;4971872;28;20406;-88
2022/09/16 04:23:46;;;;;;;7.57;2.20;;;9.50;99.90;;;;;;4955205;28;20417;-90
2022/09/16 04:26:14;;;;;;;7.87;2.00;;;9.40;99.90;;;;;;4972851;28;20407;-90
2022/09/16 04:28:41;;;;;;;4.32;1.77;;;9.40;99.90;;;;;;4971599;28;20406;-90
2022/09/16 04:31:11;;;;;;;8.02;1.80;;;9.50;99.90;;;;;;4974900;28;20731;-90
2022/09/16 04:33:39;;;;;;;7.13;2.20;;;9.50;99.90;;;;;;4976058;28;20416;-91
2022/09/16 04:36:12;;;;;;;5.65;1.88;;;9.50;99.90;;;;;;4973636;28;20460;-89
2022/09/16 04:38:42;;;;;;;6.18;1.80;;;9.50;99.90;;;;;;4973223;28;20499;-90
2022/09/16 04:41:17;;;;;;;6.78;2.10;;;9.60;99.90;;;;;;4957575;28;20479;-89
2022/09/16 04:43:49;;;;;;;8.60;1.70;;;9.50;99.90;;;;;;4957967;28;20429;-88
2022/09/16 04:46:17;;;;;;;4.40;1.65;;;9.40;99.90;;;;;;4975945;28;20485;-85
2022/09/16 04:48:49;;;;;;;7.85;2.20;;;9.50;99.90;;;;;;4974732;28;20395;-86
2022/09/16 04:51:27;;;;;;;8.93;1.80;;;9.50;99.90;;;;;;4966676;28;20426;-86
2022/09/16 04:53:56;;;;;;;4.55;1.90;;;9.50;99.90;;;;;;4971450;28;20499;-86
2022/09/16 04:56:26;;;;;;;6.55;1.70;;;9.50;99.90;;;;;;4971342;28;20436;-87
2022/09/16 04:58:56;;;;;;;11.35;2.10;;;9.50;99.90;;;;;;4955241;29;20476;-86
2022/09/16 05:01:26;;;;;;;10.40;2.20;;;9.50;99.90;;;;;;4955262;29;20502;-87
2022/09/16 05:03:57;;;;;;;6.40;1.80;;;9.50;99.90;;;;;;4955154;29;20443;-88
2022/09/16 05:06:27;;;;;;;6.72;1.95;;;9.60;99.90;;;;;;4955077;29;20481;-85
2022/09/16 05:08:56;;;;;;;7.22;2.10;;;9.50;99.90;;;;;;4955031;29;20396;-85
2022/09/16 05:11:29;;;;;;;8.83;1.80;;;9.60;99.90;;;;;;4955916;29;20432;-85
2022/09/16 05:14:02;;;;;;;7.18;1.80;;;9.50;99.90;;;;;;4962565;28;20481;-85
2022/09/16 05:16:31;;;;;;;8.15;2.33;;;9.50;99.90;;;;;;4956518;28;20493;-85
2022/09/16 05:19:03;;;;;;;9.43;2.57;;;9.60;99.90;;;;;;4954368;29;20407;-84
2022/09/16 05:21:34;;;;;;;6.75;2.55;;;9.60;99.90;;;;;;4955205;28;20415;-85
2022/09/16 05:24:04;;;;;;;8.93;2.58;;;9.60;99.90;;;;;;4964226;28;20438;-84
2022/09/16 05:26:34;;;;;;;9.80;2.70;;;9.50;99.90;;;;;;4974888;28;20399;-84
2022/09/16 05:29:04;;;;;;;9.90;2.70;;;9.50;99.90;;;;;;4973985;28;20968;-83
2022/09/16 05:31:34;;;;;;;5.53;2.28;;;9.60;99.90;;;;;;4974632;28;20399;-84
2022/09/16 05:34:05;;;;;;;8.60;2.55;;;9.60;99.90;;;;;;4974705;28;20422;-83
2022/09/16 05:36:35;;;;;;;8.73;2.00;;;9.60;99.90;;;;;;4974693;28;20395;-85
2022/09/16 05:39:02;;;;;;;10.02;2.63;;;9.60;99.90;;;;;;4974624;28;20391;-84
2022/09/16 05:41:55;;;;;;;6.88;2.17;;;9.60;99.90;;;;;;4974713;28;20417;-83
2022/09/16 05:44:24;;;;;;;8.02;2.17;;;9.70;99.90;;;;;;4969504;28;20404;-84
2022/09/16 05:46:51;;;;;;;6.18;1.98;;;9.60;99.90;;;;;;4955297;28;20415;-84
2022/09/16 05:49:19;;;;;;;8.23;2.00;;;9.60;99.90;;;;;;4955233;28;20545;-83
2022/09/16 05:51:48;;;;;;;5.78;1.35;;;9.60;99.90;;;;;;4954530;28;20920;-84
2022/09/16 05:54:19;;;;;;;5.47;1.60;;;9.60;99.90;;;;;;4974421;28;20397;-83
2022/09/16 05:56:47;;;;;;;7.50;1.97;;;9.60;99.90;;;;;;4973151;28;20405;-84
2022/09/16 05:59:16;;;;;;;6.22;1.50;;;9.60;99.90;;;;;;4973118;28;20405;-85
2022/09/16 06:01:44;;;;;;;6.38;1.60;;;9.70;99.90;;;;;;4973292;28;20383;-87
2022/09/16 06:04:13;;;;;;;5.13;1.40;;;9.70;99.90;;;;;;4974250;28;20827;-86
2022/09/16 06:06:43;;;;;;;7.07;1.90;;;9.70;99.90;;;;;;4974040;28;20913;-85
2022/09/16 06:09:14;;;;;;;7.22;1.92;;;9.80;99.90;;;;;;4974153;28;20410;-85
2022/09/16 06:11:44;;;;;;;7.13;1.77;;;9.80;99.90;;;;;;4974037;28;20401;-85
2022/09/16 06:14:13;;;;;;;6.15;2.20;;;9.70;99.90;;;;;;4972949;28;20624;-85
2022/09/16 06:16:41;;;;;;;6.55;1.73;;;9.70;99.90;;;;;;4973087;28;20387;-85
2022/09/16 06:19:14;;;;;;;6.72;2.20;;;9.70;99.90;;;;;;4972775;28;20923;-86
2022/09/16 06:21:43;;;;;;;6.50;1.98;;;9.70;99.90;;;;;;4972557;28;20445;-84
2022/09/16 06:24:12;;;;;;;8.75;2.05;;;9.70;99.90;;;;;;4972593;28;20430;-84
2022/09/16 06:26:41;;;;;;;6.35;1.80;;;9.70;99.90;;;;;;4973637;28;20886;-85
2022/09/16 06:29:10;;;;;;;6.45;2.00;;;9.70;99.90;;;;;;4972643;28;20482;-84
2022/09/16 06:31:38;;;;;;;6.85;1.85;;;9.60;99.90;;;;;;4972531;28;20404;-85
2022/09/16 06:34:07;;;;;;;7.57;1.60;;;9.60;99.90;;;;;;4972491;28;20399;-85
2022/09/16 06:36:36;;;;;;;6.38;1.70;;;9.60;99.90;;;;;;4953199;29;20400;-84
2022/09/16 06:39:12;;;;;;;4.82;1.50;;;9.60;99.90;;;;;;4954379;28;20400;-84
2022/09/16 06:41:40;;;;;;;6.43;2.00;;;9.60;99.90;;;;;;4953015;29;20483;-85
2022/09/16 06:44:07;;;;;;;8.25;1.85;;;9.60;99.90;;;;;;4953027;29;20400;-85
2022/09/16 06:46:36;;;;;;;7.68;1.80;;;9.60;99.90;;;;;;4954085;29;20392;-85
2022/09/16 06:49:04;;;;;;;7.53;1.88;;;9.60;99.90;;;;;;4952958;29;20487;-85
2022/09/16 06:51:33;;;;;;;6.38;1.60;;;9.70;99.90;;;;;;4954064;28;20396;-84
2022/09/16 06:54:04;;;;;;;5.47;1.60;;;9.70;99.90;;;;;;4952312;29;20845;-85
2022/09/16 06:56:34;;;;;;;5.10;1.55;;;9.70;99.90;;;;;;4954064;29;20401;-85
2022/09/16 06:59:03;;;;;;;4.75;1.60;;;9.80;99.90;;;;;;4954087;29;20396;-83
2022/09/16 07:01:31;;;;;;;5.07;1.50;;;9.80;99.90;;;;;;4952907;29;20791;-84
2022/09/16 07:04:04;;;;;;;4.30;1.30;;;9.80;99.90;;;;;;4952856;29;20493;-85
2022/09/16 07:06:32;;;;;;;5.75;1.60;;;9.80;99.90;;;;;;4954568;28;20412;-84
2022/09/16 07:09:21;;;;;;;5.07;1.57;;;9.80;99.90;;;;;;4964779;28;20421;-85
2022/09/16 07:11:48;;;;;;;7.27;1.53;;;9.90;99.90;;;;;;4968676;28;20495;-84
2022/09/16 07:14:16;;;;;;;5.68;1.55;;;9.90;99.90;;;;;;4952519;29;20433;-85
2022/09/16 07:16:43;;;;;;;4.50;1.73;;;9.90;99.90;;;;;;4953590;28;20403;-84
2022/09/16 07:19:11;;;;;;;4.47;1.50;;;9.90;99.90;;;;;;4954011;28;20395;-85
2022/09/16 07:21:40;;;;;;;5.88;2.00;;;9.90;99.90;;;;;;4952565;29;20933;-84
2022/09/16 07:24:10;;;;;;;6.88;1.80;;;9.90;99.90;;;;;;4954984;28;20768;-86
2022/09/16 07:26:39;;;;;;;5.68;1.50;;;10.00;99.90;;;;;;4974249;28;20959;-85
2022/09/16 07:29:10;;;;;;;4.30;1.35;;;10.00;99.90;;;;;;4990143;28;20401;-85
2022/09/16 07:31:38;;;;;;;4.25;1.25;;;10.00;99.90;;;;;;4971841;28;20762;-86
2022/09/16 07:34:08;;;;;;;5.32;1.40;;;10.00;99.90;;;;;;4977591;28;20512;-85
2022/09/16 07:36:41;;;;;;;5.85;1.58;;;10.10;99.90;;;;;;4990947;28;20488;-85
2022/09/16 07:39:09;;;;;;;6.23;1.50;;;10.10;99.90;;;;;;4992218;28;20393;-84
2022/09/16 07:41:39;;;;;;;5.03;1.40;;;10.10;99.90;;;;;;4991158;28;20419;-85
2022/09/16 07:44:09;;;;;;;26.35;2.42;;;10.20;99.90;;;;;;4973128;28;20489;-85
2022/09/16 07:46:37;;;;;;;6.00;1.80;;;10.10;99.90;;;;;;4971741;28;20482;-84
2022/09/16 07:49:07;;;;;;;4.80;1.60;;;10.20;99.90;;;;;;4971589;28;20427;-83
2022/09/16 07:51:34;;;;;;;5.17;1.40;;;10.20;99.90;;;;;;4972704;28;20403;-84
2022/09/16 07:54:05;;;;;;;2.85;1.30;;;10.20;99.90;;;;;;4972686;28;20402;-85
2022/09/16 07:56:36;;;;;;;5.20;1.40;;;10.20;99.90;;;;;;4971661;28;20967;-85
2022/09/16 07:59:09;;;;;;;6.13;1.40;;;10.20;99.90;;;;;;4973694;28;20394;-85
2022/09/16 08:01:42;;;;;;;4.18;1.38;;;10.20;99.90;;;;;;4991126;28;20899;-86
2022/09/16 08:04:10;;;;;;;5.15;1.40;;;10.30;99.90;;;;;;4977680;28;20425;-85
2022/09/16 08:06:39;;;;;;;5.53;1.23;;;10.30;99.90;;;;;;4973021;28;20390;-85
2022/09/16 08:09:07;;;;;;;5.63;1.50;;;10.30;99.90;;;;;;4973151;28;20397;-85
2022/09/16 08:11:54;;;;;;;4.90;1.50;;;10.30;99.90;;;;;;4972219;28;20756;-86
2022/09/16 08:14:22;;;;;;;5.22;1.35;;;10.30;99.90;;;;;;4956825;28;20561;-85
2022/09/16 08:16:50;;;;;;;3.33;1.23;;;10.30;99.90;;;;;;4956843;28;20392;-85
2022/09/16 08:19:19;;;;;;;5.03;1.30;;;10.30;99.90;;;;;;4956841;28;20396;-85
2022/09/16 08:21:47;;;;;;;4.47;1.30;;;10.20;99.90;;;;;;4956718;28;20458;-85
2022/09/16 08:24:15;;;;;;;4.97;1.40;;;10.30;99.90;;;;;;4939601;29;20447;-85
2022/09/16 08:26:43;;;;;;;3.92;1.25;;;10.30;99.90;;;;;;4955888;29;20416;-85
2022/09/16 08:29:10;;;;;;;3.00;1.10;;;10.40;99.90;;;;;;4955693;29;20396;-84
2022/09/16 08:31:38;;;;;;;3.20;1.40;;;10.40;99.90;;;;;;4955607;29;20450;-84
2022/09/16 08:34:06;;;;;;;5.15;1.33;;;10.50;99.90;;;;;;4971484;28;20405;-85
2022/09/16 08:36:33;;;;;;;4.28;1.30;;;10.50;99.90;;;;;;4995376;28;20392;-85
2022/09/16 08:39:01;;;;;;;8.00;1.60;;;10.50;99.90;;;;;;4977926;28;20393;-85
2022/09/16 08:42:00;;;;;;;2.80;1.20;;;10.50;99.90;;;;;;4994217;28;20440;-86
2022/09/16 08:44:39;;;;;;;4.65;1.50;;;10.50;99.90;;;;;;4977900;28;20903;-84
2022/09/16 08:47:22;;;;;;;6.63;1.30;;;10.50;99.90;;;;;;4993931;28;20520;-83
2022/09/16 08:49:51;;;;;;;4.82;1.30;;;10.50;99.90;;;;;;4994942;28;20408;-85
2022/09/16 08:52:30;;;;;;;5.40;1.40;;;10.40;99.90;;;;;;4993851;28;20760;-84
2022/09/16 08:55:03;;;;;;;3.90;1.30;;;10.50;99.90;;;;;;4994873;28;20833;-84
2022/09/16 08:57:36;;;;;;;3.33;1.27;;;10.50;99.90;;;;;;4993731;28;20429;-85
2022/09/16 09:00:12;;;;;;;4.82;1.40;;;10.40;99.90;;;;;;4994808;28;20397;-84
2022/09/16 09:02:50;;;;;;;3.88;1.10;;;10.40;99.90;;;;;;4993623;28;20443;-85
2022/09/16 09:05:37;;;;;;;3.55;1.27;;;10.40;99.90;;;;;;4994592;28;20420;-84
2022/09/16 09:08:10;;;;;;;5.45;1.30;;;10.40;99.90;;;;;;4994652;28;20400;-84
2022/09/16 09:10:50;;;;;;;4.43;1.30;;;10.40;99.90;;;;;;4994205;28;20421;-84
2022/09/16 09:13:35;;;;;;;3.25;1.17;;;10.40;99.90;;;;;;4963818;28;20485;-84
2022/09/16 09:16:28;;;;;;;3.70;1.47;;;10.30;99.90;;;;;;4974254;28;20394;-83
2022/09/16 09:19:33;;;;;;;6.18;1.42;;;10.40;99.90;;;;;;4975190;28;20475;-88
2022/09/16 09:22:21;;;;;;;7.40;1.43;;;10.40;99.90;;;;;;4973935;28;20418;-86
2022/09/16 09:25:26;;;;;;;6.43;1.50;;;10.50;99.90;;;;;;4975123;28;20501;-87
2022/09/16 09:28:16;;;;;;;5.47;1.35;;;10.60;99.90;;;;;;4974007;28;20502;-86
2022/09/16 09:30:56;;;;;;;4.43;1.40;;;10.70;99.90;;;;;;4973898;28;20426;-85
2022/09/16 09:33:42;;;;;;;4.80;1.13;;;10.70;99.90;;;;;;4977218;28;20395;-88
2022/09/16 09:36:30;;;;;;;4.30;1.10;;;10.80;99.90;;;;;;4994356;28;20419;-86
2022/09/16 09:39:32;;;;;;;2.90;1.08;;;10.80;99.90;;;;;;4992872;28;20389;-85
2022/09/16 09:42:14;;;;;;;3.92;1.10;;;10.90;99.90;;;;;;4970311;28;20406;-87
2022/09/16 09:44:55;;;;;;;3.53;1.00;;;10.90;99.90;;;;;;4971057;28;20936;-86
2022/09/16 09:47:40;;;;;;;3.78;1.13;;;10.90;99.90;;;;;;4974718;28;20386;-85
2022/09/16 09:50:30;;;;;;;4.85;1.33;;;10.80;99.90;;;;;;4973488;28;20478;-87
2022/09/16 09:53:10;;;;;;;3.78;1.30;;;10.80;99.90;;;;;;4973518;28;20493;-87
2022/09/16 09:55:39;;;;;;;4.50;1.00;;;10.80;99.90;;;;;;4971520;28;20703;-87
2022/09/16 09:59:04;;;;;;;3.03;1.20;;;10.90;99.90;;;;;;4970448;28;20432;-88
2022/09/16 10:01:32;;;;;;;2.20;1.00;;;11.00;99.90;;;;;;4934074;29;20436;-88
2022/09/16 10:03:59;;;;;;;3.25;1.10;;;11.00;99.90;;;;;;4917874;29;20405;-87
2022/09/16 10:06:32;;;;;;;2.85;0.90;;;11.00;99.90;;;;;;4939373;29;20479;-87
2022/09/16 10:09:00;;;;;;;3.80;1.00;;;11.00;99.90;;;;;;4954197;28;20411;-87
2022/09/16 10:11:30;;;;;;;3.08;1.13;;;11.10;99.90;;;;;;4953920;28;20714;-87
2022/09/16 10:14:01;;;;;;;4.47;1.02;;;11.20;99.90;;;;;;4955097;28;20808;-86
2022/09/16 10:16:36;;;;;;;3.35;1.00;;;11.20;99.90;;;;;;4953847;28;20440;-87
2022/09/16 10:19:24;;;;;;;2.20;0.90;;;11.20;99.90;;;;;;4954725;28;20403;-87
2022/09/16 10:22:16;;;;;;;1.23;0.60;;;11.20;99.90;;;;;;4953690;29;20409;-85
2022/09/16 10:24:53;;;;;;;3.55;0.90;;;11.20;99.90;;;;;;4954753;28;20404;-88
2022/09/16 10:27:35;;;;;;;2.88;0.80;;;11.10;99.90;;;;;;4952806;28;20397;-86
2022/09/16 10:30:18;;;;;;;3.33;0.88;;;11.10;99.90;;;;;;4965196;28;20403;-86
2022/09/16 10:32:50;;;;;;;2.37;0.90;;;11.10;99.90;;;;;;4966987;28;20465;-86
2022/09/16 10:35:24;;;;;;;3.03;0.77;;;11.00;99.90;;;;;;4989105;28;20480;-87
2022/09/16 10:38:16;;;;;;;3.50;1.00;;;10.90;99.90;;;;;;4991399;28;20412;-87
2022/09/16 10:40:56;;;;;;;2.25;0.88;;;10.90;99.90;;;;;;4961458;28;20484;-87
2022/09/16 10:43:27;;;;;;;4.10;1.15;;;10.90;99.90;;;;;;4960016;28;20428;-87
2022/09/16 10:45:57;;;;;;;5.25;1.17;;;11.00;99.90;;;;;;4962250;28;20410;-86
2022/09/16 10:48:30;;;;;;;3.80;1.10;;;10.90;99.90;;;;;;4958689;28;20404;-86
2022/09/16 10:51:03;;;;;;;3.85;1.20;;;10.90;99.90;;;;;;4966969;28;20407;-87
2022/09/16 10:53:36;;;;;;;3.90;1.10;;;10.90;99.90;;;;;;4965942;28;20406;-86
2022/09/16 10:56:24;;;;;;;4.18;1.25;;;10.90;99.90;;;;;;4973821;28;20432;-87
2022/09/16 10:59:09;;;;;;;4.75;1.10;;;11.00;99.90;;;;;;4966412;28;20981;-86
2022/09/16 11:01:43;;;;;;;3.65;1.20;;;11.10;99.90;;;;;;4972261;28;20417;-87
2022/09/16 11:04:50;;;;;;;3.67;0.98;;;11.10;99.90;;;;;;4973574;28;20402;-87
2022/09/16 11:07:39;;;;;;;2.88;0.82;;;11.20;99.90;;;;;;4973368;28;20390;-87
2022/09/16 11:10:27;;;;;;;2.00;0.80;;;11.10;99.90;;;;;;4972241;28;20395;-87
2022/09/16 11:13:37;;;;;;;2.15;0.90;;;11.30;99.90;;;;;;4973217;28;20398;-89
2022/09/16 11:16:31;;;;;;;2.08;0.70;;;11.50;99.90;;;;;;4973488;28;20888;-87
2022/09/16 11:19:11;;;;;;;3.28;1.00;;;11.50;99.90;;;;;;4973512;28;20753;-87
2022/09/16 11:21:55;;;;;;;2.20;0.93;;;11.40;99.90;;;;;;4973167;28;20438;-87
2022/09/16 11:24:42;;;;;;;4.38;1.20;;;11.30;99.90;;;;;;4971867;28;20969;-89
2022/09/16 11:27:32;;;;;;;2.60;1.00;;;11.20;99.90;;;;;;4973165;28;20397;-88
2022/09/16 11:30:08;;;;;;;3.93;1.00;;;11.30;99.90;;;;;;4968957;28;20403;-88
2022/09/16 11:32:55;;;;;;;2.97;1.00;;;11.30;99.90;;;;;;4956906;28;20408;-89
2022/09/16 11:35:39;;;;;;;2.38;0.90;;;11.60;99.90;;;;;;4960807;28;20394;-87
2022/09/16 11:38:37;;;;;;;3.40;0.90;;;11.90;99.90;;;;;;4973260;28;20920;-86
2022/09/16 11:41:28;;;;;;;4.75;1.38;;;12.00;99.90;;;;;;4976914;28;20405;-89
2022/09/16 11:43:55;;;;;;;2.40;0.70;;;12.30;99.90;;;;;;4977180;28;20390;-87
2022/09/16 11:46:41;;;;;;;2.33;0.80;;;12.10;99.90;;;;;;4975657;28;20395;-87
2022/09/16 11:49:37;;;;;;;2.35;0.77;;;12.10;99.90;;;;;;4968517;28;20427;-87
2022/09/16 11:52:46;;;;;;;4.25;1.25;;;12.00;99.90;;;;;;4975543;28;20901;-87
2022/09/16 11:55:41;;;;;;;4.23;1.00;;;12.00;99.90;;;;;;4975739;28;20394;-86
2022/09/16 11:58:38;;;;;;;2.70;0.97;;;11.90;99.90;;;;;;4977369;28;20398;-88
2022/09/16 12:01:18;;;;;;;4.35;1.17;;;11.80;99.90;;;;;;4967962;28;20459;-88
2022/09/16 12:04:01;;;;;;;3.95;1.02;;;11.80;99.90;;;;;;4956228;29;20399;-88
2022/09/16 12:06:37;;;;;;;4.30;1.20;;;11.90;99.90;;;;;;4956160;29;20459;-88
2022/09/16 12:09:16;;;;;;;2.75;0.93;;;11.80;99.90;;;;;;4957418;29;20388;-88
2022/09/16 12:11:49;;;;;;;3.88;1.00;;;11.80;99.90;;;;;;4956356;29;20914;-87
2022/09/16 12:14:28;;;;;;;5.05;0.93;;;11.70;99.90;;;;;;4964615;28;20871;-87
2022/09/16 12:17:03;;;;;;;3.17;0.90;;;11.60;99.90;;;;;;4957082;28;20419;-86
2022/09/16 12:19:41;;;;;;;3.23;1.27;;;11.60;99.90;;;;;;4957162;29;20396;-87
2022/09/16 12:22:32;;;;;;;4.18;1.20;;;11.60;99.90;;;;;;4956977;28;20495;-87
2022/09/16 12:25:26;;;;;;;4.70;1.47;;;11.40;99.90;;;;;;4957162;28;20807;-86
2022/09/16 12:28:16;;;;;;;3.85;1.50;;;11.40;99.90;;;;;;4969238;28;20982;-86
2022/09/16 12:30:52;;;;;;;4.40;1.60;;;11.20;99.90;;;;;;4971151;28;20777;-87
2022/09/16 12:33:35;;;;;;;3.55;1.90;;;11.10;99.90;;;;;;4969047;28;20483;-87
2022/09/16 12:36:15;;;;;;;7.65;2.35;;;11.10;99.90;;;;;;4960869;28;20447;-87
2022/09/16 12:38:47;;;;;;;4.03;2.00;;;11.20;99.90;;;;;;4956753;28;20404;-86
2022/09/16 12:41:34;;;;;;;4.72;1.65;;;11.30;99.90;;;;;;4963136;28;20406;-87
2022/09/16 12:44:55;;;;;;;6.05;2.08;;;11.20;99.90;;;;;;4971471;28;20432;-86
2022/09/16 12:47:44;;;;;;;6.30;1.60;;;11.20;99.90;;;;;;4954465;29;20431;-88
2022/09/16 12:50:48;;;;;;;3.70;1.55;;;11.20;99.90;;;;;;4970621;28;20887;-86
2022/09/16 12:53:45;;;;;;;3.70;1.47;;;11.40;99.90;;;;;;4956793;28;20824;-86
2022/09/16 12:56:47;;;;;;;5.75;1.40;;;11.50;99.90;;;;;;4956509;29;20396;-88
2022/09/16 12:59:21;;;;;;;3.85;1.08;;;11.60;99.90;;;;;;4956374;28;20400;-86
2022/09/16 13:02:05;;;;;;;3.67;1.20;;;11.60;99.90;;;;;;4962615;28;20432;-87
2022/09/16 13:04:38;;;;;;;2.10;0.90;;;11.60;99.90;;;;;;4975473;28;20889;-87
2022/09/16 13:07:07;;;;;;;3.92;1.08;;;12.00;99.90;;;;;;4974491;28;20826;-86
2022/09/16 13:09:37;;;;;;;3.72;1.10;;;12.30;99.90;;;;;;4975667;28;20888;-88
2022/09/16 13:12:17;;;;;;;5.53;1.10;;;12.60;99.90;;;;;;4974473;28;20410;-88
2022/09/16 13:15:06;;;;;;;5.13;1.00;;;12.70;99.90;;;;;;4974297;28;20469;-88
2022/09/16 13:17:38;;;;;;;4.28;1.15;;;13.00;99.90;;;;;;4971166;28;20428;-89
2022/09/16 13:20:38;;;;;;;5.03;0.90;;;13.00;99.90;;;;;;4956185;28;20400;-89
2022/09/16 13:23:33;;;;;;;5.57;1.25;;;13.00;99.90;;;;;;4938639;29;20419;-87
2022/09/16 13:26:06;;;;;;;4.70;1.00;;;12.80;99.90;;;;;;4955845;29;20400;-88
2022/09/16 13:28:37;;;;;;;2.70;0.98;;;12.50;99.90;;;;;;4970989;28;20388;-88
2022/09/16 13:31:18;;;;;;;2.95;1.35;;;12.30;99.90;;;;;;4955773;29;20396;-86
2022/09/16 13:34:01;;;;;;;3.38;0.77;;;12.20;99.90;;;;;;4979223;28;20429;-87
2022/09/16 13:36:32;;;;;;;2.70;0.90;;;12.10;99.90;;;;;;4977273;28;20400;-88
2022/09/16 13:39:09;;;;;;;2.20;0.60;;;12.00;99.90;;;;;;4994369;28;20397;-88
2022/09/16 13:41:43;;;;;;;3.20;0.50;;;11.90;99.90;;;;;;4993529;28;20443;-88